createdAt,value
2023-10-18T00:00:38.654Z,4.10
2023-10-18T00:01:29.499Z,4.30
2023-10-18T00:02:20.325Z,4.00
2023-10-18T00:03:11.154Z,4.00
2023-10-18T00:04:02.085Z,4.60
2023-10-18T00:04:52.918Z,4.20
2023-10-18T00:05:43.685Z,4.20
2023-10-18T00:06:34.546Z,4.30
2023-10-18T00:07:25.270Z,4.50
2023-10-18T00:08:16.074Z,4.30
2023-10-18T00:09:06.858Z,4.00
2023-10-18T00:09:57.753Z,4.10
2023-10-18T00:10:48.499Z,3.80
2023-10-18T00:11:39.317Z,4.40
2023-10-18T00:12:30.079Z,4.00
2023-10-18T00:13:20.868Z,4.10
2023-10-18T00:14:11.663Z,3.60
2023-10-18T00:15:02.449Z,3.90
2023-10-18T00:15:53.274Z,4.10
2023-10-18T00:16:44.030Z,3.90
2023-10-18T00:17:34.944Z,3.80
2023-10-18T00:18:25.816Z,4.00
2023-10-18T00:19:16.748Z,3.90
2023-10-18T00:20:07.510Z,3.90
2023-10-18T00:20:58.294Z,3.80
2023-10-18T00:21:49.100Z,3.70
2023-10-18T00:22:39.880Z,4.20
2023-10-18T00:23:30.668Z,3.70
2023-10-18T00:24:21.441Z,4.10
2023-10-18T00:25:12.313Z,4.00
2023-10-18T00:26:03.147Z,4.10
2023-10-18T00:26:53.964Z,4.20
2023-10-18T00:27:44.766Z,3.80
2023-10-18T00:28:35.513Z,3.70
2023-10-18T00:29:26.296Z,3.70
2023-10-18T00:30:17.098Z,4.40
2023-10-18T00:31:07.986Z,5.10
2023-10-18T00:31:58.793Z,5.30
2023-10-18T00:32:49.554Z,5.40
2023-10-18T00:33:40.394Z,5.40
2023-10-18T00:34:31.138Z,5.30
2023-10-18T00:35:23.290Z,4.90
2023-10-18T00:36:13.034Z,4.70
2023-10-18T00:37:03.854Z,4.60
2023-10-18T00:37:54.607Z,4.40
2023-10-18T00:38:46.004Z,4.40
2023-10-18T00:39:36.100Z,4.80
2023-10-18T00:40:26.867Z,4.50
2023-10-18T00:41:17.753Z,4.40
2023-10-18T00:42:08.554Z,4.40
2023-10-18T00:42:59.405Z,4.20
2023-10-18T00:43:50.270Z,4.20
2023-10-18T00:44:41.019Z,4.30
2023-10-18T00:45:31.808Z,4.30
2023-10-18T00:46:22.682Z,4.20
2023-10-18T00:47:13.535Z,4.20
2023-10-18T00:48:04.345Z,4.20
2023-10-18T00:48:55.116Z,4.30
2023-10-18T00:49:45.864Z,4.40
2023-10-18T00:50:36.648Z,4.10
2023-10-18T00:51:27.433Z,4.20
2023-10-18T00:52:18.282Z,4.10
2023-10-18T00:53:09.018Z,4.50
2023-10-18T00:53:59.799Z,4.30
2023-10-18T00:54:50.596Z,3.80
2023-10-18T00:55:41.400Z,4.10
2023-10-18T00:56:32.191Z,4.20
2023-10-18T00:57:29.374Z,4.30
2023-10-18T00:58:15.023Z,4.00
2023-10-18T00:59:05.130Z,4.20
2023-10-18T00:59:55.915Z,4.20
2023-10-18T01:00:46.827Z,4.00
2023-10-18T01:01:37.635Z,4.40
2023-10-18T01:02:28.629Z,4.30
2023-10-18T01:03:19.569Z,5.00
2023-10-18T01:04:10.453Z,4.40
2023-10-18T01:05:01.248Z,4.10
2023-10-18T01:05:52.004Z,4.30
2023-10-18T01:06:42.858Z,4.20
2023-10-18T01:07:33.768Z,4.30
2023-10-18T01:08:25.545Z,4.40
2023-10-18T01:09:15.621Z,4.20
2023-10-18T01:10:06.404Z,4.30
2023-10-18T01:10:57.188Z,4.70
2023-10-18T01:11:47.979Z,4.50
2023-10-18T01:12:39.072Z,3.90
2023-10-18T01:13:29.794Z,4.20
2023-10-18T01:14:20.583Z,3.90
2023-10-18T01:15:11.366Z,4.00
2023-10-18T01:16:02.205Z,4.00
2023-10-18T01:16:53.050Z,3.90
2023-10-18T01:17:43.834Z,3.90
2023-10-18T01:18:34.661Z,3.90
2023-10-18T01:19:25.440Z,4.10
2023-10-18T01:20:16.229Z,4.10
2023-10-18T01:21:07.010Z,4.00
2023-10-18T01:21:57.926Z,4.40
2023-10-18T01:22:48.680Z,4.00
2023-10-18T01:23:39.467Z,4.40
2023-10-18T01:24:30.247Z,4.10
2023-10-18T01:25:21.026Z,4.20
2023-10-18T01:26:11.809Z,4.10
2023-10-18T01:27:02.587Z,4.60
2023-10-18T01:27:53.467Z,4.20
2023-10-18T01:28:44.202Z,4.00
2023-10-18T01:29:34.988Z,4.50
2023-10-18T01:30:26.064Z,4.30
2023-10-18T01:31:17.052Z,4.10
2023-10-18T01:32:07.935Z,4.10
2023-10-18T01:32:58.739Z,3.80
2023-10-18T01:33:49.662Z,4.20
2023-10-18T01:34:40.409Z,3.90
2023-10-18T01:35:31.202Z,4.00
2023-10-18T01:36:21.999Z,3.90
2023-10-18T01:37:12.826Z,4.00
2023-10-18T01:38:03.569Z,4.20
2023-10-18T01:38:54.573Z,4.10
2023-10-18T01:39:45.336Z,3.90
2023-10-18T01:40:36.088Z,3.90
2023-10-18T01:41:27.286Z,4.00
2023-10-18T01:42:17.828Z,3.80
2023-10-18T01:43:08.648Z,4.10
2023-10-18T01:43:59.478Z,3.80
2023-10-18T01:44:50.231Z,3.90
2023-10-18T01:45:41.060Z,3.80
2023-10-18T01:46:31.835Z,3.90
2023-10-18T01:47:22.626Z,4.00
2023-10-18T01:48:13.497Z,4.00
2023-10-18T01:49:04.257Z,4.00
2023-10-18T01:49:55.077Z,3.80
2023-10-18T01:50:45.824Z,3.80
2023-10-18T01:51:36.679Z,4.00
2023-10-18T01:52:27.464Z,3.80
2023-10-18T01:53:18.250Z,3.50
2023-10-18T01:54:09.036Z,4.00
2023-10-18T01:54:59.855Z,3.80
2023-10-18T01:55:50.607Z,3.90
2023-10-18T01:56:42.445Z,3.90
2023-10-18T01:57:32.140Z,3.80
2023-10-18T01:58:22.957Z,3.50
2023-10-18T01:59:13.714Z,3.60
2023-10-18T02:00:04.507Z,4.00
2023-10-18T02:00:55.344Z,3.90
2023-10-18T02:01:46.134Z,3.60
2023-10-18T02:02:37.014Z,3.60
2023-10-18T02:03:27.900Z,3.80
2023-10-18T02:04:18.673Z,3.40
2023-10-18T02:05:09.524Z,4.00
2023-10-18T02:06:00.438Z,3.60
2023-10-18T02:06:51.281Z,3.60
2023-10-18T02:07:42.016Z,3.40
2023-10-18T02:08:32.810Z,3.70
2023-10-18T02:09:23.593Z,3.70
2023-10-18T02:10:14.474Z,3.60
2023-10-18T02:11:05.216Z,3.60
2023-10-18T02:11:56.021Z,3.40
2023-10-18T02:12:46.830Z,3.90
2023-10-18T02:13:37.722Z,3.60
2023-10-18T02:14:28.579Z,3.60
2023-10-18T02:15:19.361Z,3.50
2023-10-18T02:16:10.174Z,3.40
2023-10-18T02:17:01.011Z,3.40
2023-10-18T02:17:51.836Z,3.50
2023-10-18T02:18:42.865Z,3.40
2023-10-18T02:19:33.791Z,3.90
2023-10-18T02:20:24.522Z,3.40
2023-10-18T02:21:15.332Z,3.60
2023-10-18T02:22:06.127Z,3.80
2023-10-18T02:22:56.881Z,3.40
2023-10-18T02:23:47.945Z,3.30
2023-10-18T02:24:38.739Z,3.40
2023-10-18T02:25:29.479Z,3.30
2023-10-18T02:26:20.263Z,3.30
2023-10-18T02:27:11.097Z,3.50
2023-10-18T02:28:01.944Z,3.10
2023-10-18T02:28:52.696Z,3.40
2023-10-18T02:29:43.454Z,3.10
2023-10-18T02:30:34.244Z,3.30
2023-10-18T02:31:25.084Z,3.50
2023-10-18T02:32:15.836Z,3.20
2023-10-18T02:33:06.707Z,3.30
2023-10-18T02:33:57.602Z,3.10
2023-10-18T02:34:48.370Z,3.10
2023-10-18T02:35:39.162Z,3.40
2023-10-18T02:36:29.943Z,3.20
2023-10-18T02:37:20.807Z,3.20
2023-10-18T02:38:11.528Z,3.50
2023-10-18T02:39:02.324Z,3.40
2023-10-18T02:40:04.468Z,3.50
2023-10-18T02:40:45.181Z,3.70
2023-10-18T02:41:35.289Z,3.20
2023-10-18T02:42:26.100Z,3.30
2023-10-18T02:43:16.896Z,3.10
2023-10-18T02:44:07.691Z,3.30
2023-10-18T02:44:58.438Z,3.10
2023-10-18T02:45:49.256Z,3.30
2023-10-18T02:46:40.208Z,3.20
2023-10-18T02:47:31.385Z,3.30
2023-10-18T02:48:22.218Z,3.30
2023-10-18T02:49:13.014Z,3.20
2023-10-18T02:50:03.822Z,3.20
2023-10-18T02:50:54.605Z,2.90
2023-10-18T02:51:45.372Z,3.10
2023-10-18T02:52:36.151Z,3.20
2023-10-18T02:53:26.943Z,4.30
2023-10-18T02:54:17.730Z,3.50
2023-10-18T02:55:08.540Z,4.10
2023-10-18T02:55:59.325Z,4.30
2023-10-18T02:56:50.116Z,4.30
2023-10-18T02:57:40.939Z,3.70
2023-10-18T02:58:31.753Z,3.30
2023-10-18T02:59:22.533Z,3.30
2023-10-18T03:00:13.303Z,3.10
2023-10-18T03:01:04.267Z,3.10
2023-10-18T03:01:55.112Z,2.90
2023-10-18T03:02:45.942Z,3.10
2023-10-18T03:03:36.704Z,2.80
2023-10-18T03:04:27.547Z,2.90
2023-10-18T03:05:18.380Z,3.00
2023-10-18T03:06:09.158Z,2.90
2023-10-18T03:07:00.003Z,2.80
2023-10-18T03:07:50.737Z,3.10
2023-10-18T03:08:41.523Z,2.60
2023-10-18T03:09:32.530Z,2.60
2023-10-18T03:10:23.403Z,2.80
2023-10-18T03:11:14.185Z,2.60
2023-10-18T03:12:04.999Z,3.00
2023-10-18T03:12:55.876Z,3.00
2023-10-18T03:13:46.606Z,3.10
2023-10-18T03:14:37.427Z,2.70
2023-10-18T03:15:28.177Z,2.70
2023-10-18T03:16:19.032Z,3.00
2023-10-18T03:17:09.902Z,3.00
2023-10-18T03:18:00.714Z,2.70
2023-10-18T03:18:51.487Z,2.60
2023-10-18T03:19:42.247Z,2.70
2023-10-18T03:20:33.041Z,2.80
2023-10-18T03:21:23.828Z,3.00
2023-10-18T03:22:14.661Z,2.70
2023-10-18T03:23:05.443Z,2.70
2023-10-18T03:23:56.239Z,2.50
2023-10-18T03:24:47.028Z,2.60
2023-10-18T03:25:37.798Z,2.50
2023-10-18T03:26:28.580Z,2.30
2023-10-18T03:27:19.449Z,2.60
2023-10-18T03:28:10.261Z,2.60
2023-10-18T03:29:01.048Z,2.40
2023-10-18T03:29:51.845Z,2.60
2023-10-18T03:30:42.668Z,2.60
2023-10-18T03:31:33.521Z,2.60
2023-10-18T03:32:24.391Z,2.70
2023-10-18T03:33:15.178Z,2.60
2023-10-18T03:34:05.977Z,2.60
2023-10-18T03:34:56.728Z,2.90
2023-10-18T03:35:47.524Z,2.50
2023-10-18T03:36:38.307Z,2.50
2023-10-18T03:37:29.116Z,2.70
2023-10-18T03:38:20.137Z,2.50
2023-10-18T03:39:10.935Z,2.50
2023-10-18T03:40:01.755Z,2.50
2023-10-18T03:40:52.511Z,2.50
2023-10-18T03:41:43.305Z,2.70
2023-10-18T03:42:34.087Z,2.90
2023-10-18T03:43:24.832Z,2.50
2023-10-18T03:44:15.598Z,2.50
2023-10-18T03:45:06.392Z,2.70
2023-10-18T03:45:57.188Z,2.80
2023-10-18T03:46:48.030Z,2.70
2023-10-18T03:47:38.900Z,2.90
2023-10-18T03:48:29.656Z,3.00
2023-10-18T03:49:20.473Z,3.30
2023-10-18T03:50:11.202Z,3.10
2023-10-18T03:51:01.996Z,3.20
2023-10-18T03:51:52.768Z,3.30
2023-10-18T03:52:43.500Z,3.50
2023-10-18T03:53:34.256Z,3.50
2023-10-18T03:54:25.077Z,3.20
2023-10-18T03:55:15.811Z,3.30
2023-10-18T03:56:06.537Z,3.10
2023-10-18T03:56:57.296Z,2.80
2023-10-18T03:57:48.088Z,3.40
2023-10-18T03:58:38.833Z,3.30
2023-10-18T03:59:29.769Z,3.30
2023-10-18T04:00:20.580Z,3.60
2023-10-18T04:01:11.436Z,3.60
2023-10-18T04:02:02.197Z,3.90
2023-10-18T04:02:53.012Z,3.60
2023-10-18T04:03:43.856Z,3.50
2023-10-18T04:04:34.703Z,3.80
2023-10-18T04:05:25.487Z,3.40
2023-10-18T04:06:16.254Z,3.70
2023-10-18T04:07:07.081Z,4.10
2023-10-18T04:07:57.862Z,3.60
2023-10-18T04:08:48.632Z,3.80
2023-10-18T04:09:39.388Z,3.90
2023-10-18T04:10:30.149Z,4.10
2023-10-18T04:11:21.160Z,3.90
2023-10-18T04:12:11.915Z,4.40
2023-10-18T04:13:02.708Z,3.80
2023-10-18T04:13:53.442Z,3.60
2023-10-18T04:14:44.207Z,3.30
2023-10-18T04:15:35.013Z,3.30
2023-10-18T04:16:25.774Z,3.40
2023-10-18T04:17:16.502Z,3.00
2023-10-18T04:18:07.319Z,3.40
2023-10-18T04:18:58.174Z,3.20
2023-10-18T04:19:49.009Z,2.90
2023-10-18T04:20:39.741Z,3.00
2023-10-18T04:21:30.509Z,2.80
2023-10-18T04:22:21.296Z,2.50
2023-10-18T04:23:12.039Z,2.90
2023-10-18T04:24:02.798Z,2.80
2023-10-18T04:24:53.597Z,2.80
2023-10-18T04:25:44.323Z,3.00
2023-10-18T04:26:35.092Z,2.90
2023-10-18T04:27:25.868Z,3.00
2023-10-18T04:28:16.683Z,2.90
2023-10-18T04:29:07.386Z,2.90
2023-10-18T04:29:58.152Z,2.80
2023-10-18T04:30:48.952Z,2.70
2023-10-18T04:31:39.856Z,2.90
2023-10-18T04:32:30.606Z,3.20
2023-10-18T04:33:21.433Z,2.70
2023-10-18T04:34:12.281Z,2.80
2023-10-18T04:35:03.024Z,2.70
2023-10-18T04:35:53.795Z,2.90
2023-10-18T04:36:44.696Z,2.70
2023-10-18T04:37:35.418Z,2.70
2023-10-18T04:38:26.191Z,2.60
2023-10-18T04:39:16.952Z,2.70
2023-10-18T04:40:07.800Z,2.50
2023-10-18T04:40:58.513Z,2.50
2023-10-18T04:41:49.273Z,2.40
2023-10-18T04:42:40.301Z,2.70
2023-10-18T04:43:31.058Z,2.60
2023-10-18T04:44:21.813Z,2.70
2023-10-18T04:45:12.567Z,2.60
2023-10-18T04:46:03.624Z,2.60
2023-10-18T04:46:54.564Z,2.50
2023-10-18T04:47:45.457Z,2.60
2023-10-18T04:48:36.208Z,2.50
2023-10-18T04:49:27.034Z,2.70
2023-10-18T04:50:17.760Z,2.40
2023-10-18T04:51:08.530Z,2.70
2023-10-18T04:51:59.315Z,3.20
2023-10-18T04:52:50.043Z,2.70
2023-10-18T04:53:40.810Z,3.40
2023-10-18T04:54:31.578Z,3.40
2023-10-18T04:55:22.391Z,3.50
2023-10-18T04:56:13.102Z,3.10
2023-10-18T04:57:03.861Z,3.40
2023-10-18T04:57:54.665Z,3.30
2023-10-18T04:58:45.392Z,3.20
2023-10-18T04:59:37.877Z,3.20
2023-10-18T05:00:26.839Z,2.80
2023-10-18T05:01:17.723Z,3.00
2023-10-18T05:02:08.526Z,2.80
2023-10-18T05:02:59.302Z,3.00
2023-10-18T05:03:50.121Z,2.90
2023-10-18T05:04:40.883Z,3.10
2023-10-18T05:05:31.616Z,2.90
2023-10-18T05:06:22.358Z,3.00
2023-10-18T05:07:13.182Z,3.00
2023-10-18T05:08:03.887Z,3.20
2023-10-18T05:08:54.676Z,3.10
2023-10-18T05:09:46.364Z,3.00
2023-10-18T05:10:36.307Z,3.40
2023-10-18T05:11:27.109Z,3.10
2023-10-18T05:12:18.168Z,2.80
2023-10-18T05:13:08.969Z,2.90
2023-10-18T05:13:59.681Z,3.30
2023-10-18T05:14:53.785Z,3.20
2023-10-18T05:15:41.697Z,3.20
2023-10-18T05:16:32.540Z,3.20
2023-10-18T05:17:23.534Z,3.00
2023-10-18T05:18:14.241Z,3.00
2023-10-18T05:19:05.178Z,2.80
2023-10-18T05:19:56.039Z,3.00
2023-10-18T05:20:46.922Z,3.10
2023-10-18T05:21:37.777Z,3.00
2023-10-18T05:22:29.099Z,3.10
2023-10-18T05:23:19.890Z,2.90
2023-10-18T05:24:11.019Z,2.70
2023-10-18T05:25:02.406Z,2.90
2023-10-18T05:25:53.236Z,2.70
2023-10-18T05:26:46.307Z,3.00
2023-10-18T05:27:35.123Z,2.80
2023-10-18T05:28:25.994Z,2.60
2023-10-18T05:29:16.846Z,2.70
2023-10-18T05:30:07.716Z,2.80
2023-10-18T05:30:58.693Z,2.80
2023-10-18T05:31:49.590Z,2.80
2023-10-18T05:32:49.461Z,2.90
2023-10-18T05:33:32.381Z,3.20
2023-10-18T05:34:22.036Z,3.00
2023-10-18T05:35:13.581Z,2.90
2023-10-18T05:36:03.835Z,2.90
2023-10-18T05:36:54.720Z,3.00
2023-10-18T05:37:45.585Z,3.40
2023-10-18T05:38:36.455Z,3.10
2023-10-18T05:39:27.352Z,3.00
2023-10-18T05:40:18.254Z,2.80
2023-10-18T05:41:09.065Z,2.60
2023-10-18T05:41:59.934Z,2.80
2023-10-18T05:42:50.882Z,2.80
2023-10-18T05:43:41.714Z,2.80
2023-10-18T05:44:32.595Z,2.70
2023-10-18T05:45:23.479Z,2.70
2023-10-18T05:46:14.541Z,3.30
2023-10-18T05:47:05.446Z,3.20
2023-10-18T05:47:56.354Z,3.00
2023-10-18T05:48:47.250Z,3.20
2023-10-18T05:49:38.157Z,3.40
2023-10-18T05:50:29.531Z,3.00
2023-10-18T05:51:31.002Z,2.70
2023-10-18T05:52:11.764Z,3.00
2023-10-18T05:53:01.402Z,2.80
2023-10-18T05:53:52.280Z,2.90
2023-10-18T05:54:43.189Z,2.90
2023-10-18T05:55:34.057Z,2.60
2023-10-18T05:56:24.948Z,2.70
2023-10-18T05:57:15.817Z,2.70
2023-10-18T05:58:06.769Z,3.10
2023-10-18T05:58:57.612Z,3.60
2023-10-18T05:59:48.503Z,2.90
2023-10-18T06:00:39.374Z,3.20
2023-10-18T06:01:30.355Z,2.90
2023-10-18T06:02:21.373Z,3.10
2023-10-18T06:03:13.438Z,3.10
2023-10-18T06:04:03.226Z,2.90
2023-10-18T06:04:54.109Z,3.10
2023-10-18T06:05:44.972Z,2.90
2023-10-18T06:06:35.848Z,3.10
2023-10-18T06:07:26.785Z,2.70
2023-10-18T06:08:17.652Z,3.10
2023-10-18T06:09:08.548Z,3.20
2023-10-18T06:09:59.725Z,3.20
2023-10-18T06:10:50.345Z,3.00
2023-10-18T06:11:41.247Z,3.00
2023-10-18T06:12:32.194Z,3.20
2023-10-18T06:13:23.114Z,3.30
2023-10-18T06:14:13.971Z,3.10
2023-10-18T06:15:04.871Z,3.20
2023-10-18T06:15:55.818Z,3.30
2023-10-18T06:16:46.755Z,3.20
2023-10-18T06:17:37.672Z,3.00
2023-10-18T06:18:28.547Z,3.10
2023-10-18T06:19:19.493Z,3.20
2023-10-18T06:20:10.368Z,3.20
2023-10-18T06:21:01.269Z,3.50
2023-10-18T06:21:52.190Z,3.40
2023-10-18T06:22:43.082Z,3.50
2023-10-18T06:23:34.040Z,3.50
2023-10-18T06:24:24.917Z,3.70
2023-10-18T06:25:15.855Z,3.60
2023-10-18T06:26:06.739Z,3.50
2023-10-18T06:26:57.663Z,3.60
2023-10-18T06:27:48.584Z,3.60
2023-10-18T06:28:39.483Z,4.10
2023-10-18T06:29:30.599Z,3.80
2023-10-18T06:30:21.561Z,3.40
2023-10-18T06:31:12.585Z,3.20
2023-10-18T06:32:03.520Z,3.40
2023-10-18T06:32:54.554Z,4.10
2023-10-18T06:33:45.518Z,3.80
2023-10-18T06:34:36.375Z,4.00
2023-10-18T06:35:27.288Z,4.10
2023-10-18T06:36:18.197Z,4.20
2023-10-18T06:37:09.142Z,4.50
2023-10-18T06:38:00.028Z,4.80
2023-10-18T06:38:50.943Z,4.00
2023-10-18T06:39:41.855Z,4.60
2023-10-18T06:40:32.782Z,5.10
2023-10-18T06:41:23.682Z,4.70
2023-10-18T06:42:14.609Z,4.90
2023-10-18T06:43:05.567Z,4.70
2023-10-18T06:43:56.501Z,4.90
2023-10-18T06:44:47.401Z,5.20
2023-10-18T06:45:38.316Z,5.10
2023-10-18T06:46:30.117Z,5.30
2023-10-18T06:47:19.870Z,5.30
2023-10-18T06:48:10.806Z,5.10
2023-10-18T06:49:10.838Z,4.90
2023-10-18T06:50:01.093Z,5.30
2023-10-18T06:50:44.306Z,5.40
2023-10-18T06:51:34.086Z,5.00
2023-10-18T06:52:24.988Z,5.60
2023-10-18T06:53:15.922Z,5.50
2023-10-18T06:54:06.823Z,5.60
2023-10-18T06:54:57.762Z,5.40
2023-10-18T06:55:48.637Z,5.20
2023-10-18T06:56:39.559Z,4.80
2023-10-18T06:57:30.471Z,4.60
2023-10-18T06:58:21.447Z,4.70
2023-10-18T06:59:12.355Z,4.40
2023-10-18T07:00:03.280Z,4.40
2023-10-18T07:00:54.264Z,4.10
2023-10-18T07:01:45.320Z,4.20
2023-10-18T07:02:36.268Z,3.90
2023-10-18T07:03:27.192Z,3.90
2023-10-18T07:04:18.093Z,4.30
2023-10-18T07:05:08.976Z,3.90
2023-10-18T07:05:59.913Z,4.00
2023-10-18T07:06:50.931Z,4.00
2023-10-18T07:07:41.830Z,3.90
2023-10-18T07:08:32.754Z,3.80
2023-10-18T07:09:23.666Z,4.10
2023-10-18T07:10:14.629Z,3.90
2023-10-18T07:11:19.083Z,3.90
2023-10-18T07:11:57.411Z,3.80
2023-10-18T07:12:47.153Z,4.30
2023-10-18T07:13:38.026Z,4.30
2023-10-18T07:14:28.935Z,4.00
2023-10-18T07:15:19.866Z,4.00
2023-10-18T07:16:10.896Z,4.10
2023-10-18T07:17:01.929Z,4.10
2023-10-18T07:17:52.891Z,4.10
2023-10-18T07:18:43.794Z,4.30
2023-10-18T07:19:35.155Z,4.10
2023-10-18T07:20:25.554Z,4.40
2023-10-18T07:21:16.451Z,4.20
2023-10-18T07:22:07.520Z,4.10
2023-10-18T07:22:58.548Z,4.20
2023-10-18T07:23:49.461Z,4.10
2023-10-18T07:24:40.366Z,4.40
2023-10-18T07:25:31.332Z,4.80
2023-10-18T07:26:22.173Z,3.80
2023-10-18T07:27:13.083Z,4.00
2023-10-18T07:28:04.018Z,4.00
2023-10-18T07:28:54.921Z,4.20
2023-10-18T07:29:45.829Z,4.10
2023-10-18T07:30:36.745Z,4.00
2023-10-18T07:31:27.774Z,4.00
2023-10-18T07:32:18.788Z,3.80
2023-10-18T07:33:12.265Z,3.60
2023-10-18T07:34:00.900Z,3.70
2023-10-18T07:34:51.765Z,3.40
2023-10-18T07:35:42.673Z,3.40
2023-10-18T07:36:33.580Z,3.40
2023-10-18T07:37:24.587Z,3.40
2023-10-18T07:38:17.206Z,3.10
2023-10-18T07:39:06.493Z,3.40
2023-10-18T07:39:57.447Z,3.30
2023-10-18T07:40:48.350Z,3.40
2023-10-18T07:41:39.261Z,3.50
2023-10-18T07:42:30.173Z,3.70
2023-10-18T07:43:21.155Z,3.40
2023-10-18T07:44:12.015Z,3.40
2023-10-18T07:45:02.907Z,3.60
2023-10-18T07:45:53.880Z,3.80
2023-10-18T07:46:44.740Z,4.10
2023-10-18T07:47:35.704Z,3.80
2023-10-18T07:48:26.607Z,3.50
2023-10-18T07:49:17.629Z,3.60
2023-10-18T07:50:08.497Z,3.50
2023-10-18T07:50:59.431Z,3.40
2023-10-18T07:51:50.773Z,3.50
2023-10-18T07:52:41.412Z,4.00
2023-10-18T07:53:32.380Z,3.50
2023-10-18T07:54:23.271Z,3.50
2023-10-18T07:55:14.216Z,3.20
2023-10-18T07:56:05.125Z,3.40
2023-10-18T07:56:56.043Z,3.30
2023-10-18T07:57:46.971Z,3.40
2023-10-18T07:58:37.903Z,3.60
2023-10-18T07:59:29.082Z,3.40
2023-10-18T08:00:19.797Z,3.40
2023-10-18T08:01:11.036Z,3.80
2023-10-18T08:02:01.572Z,3.60
2023-10-18T08:02:52.581Z,3.70
2023-10-18T08:03:43.623Z,4.00
2023-10-18T08:04:35.046Z,3.50
2023-10-18T08:05:25.655Z,3.90
2023-10-18T08:06:16.621Z,3.80
2023-10-18T08:07:07.551Z,3.50
2023-10-18T08:07:58.500Z,3.80
2023-10-18T08:08:49.417Z,3.60
2023-10-18T08:09:40.401Z,3.40
2023-10-18T08:10:31.357Z,3.50
2023-10-18T08:11:22.311Z,3.60
2023-10-18T08:12:13.278Z,3.60
2023-10-18T08:13:04.300Z,3.80
2023-10-18T08:13:55.219Z,3.70
2023-10-18T08:14:46.193Z,3.80
2023-10-18T08:15:37.212Z,3.70
2023-10-18T08:16:36.232Z,3.80
2023-10-18T08:17:19.266Z,3.60
2023-10-18T08:18:10.262Z,3.80
2023-10-18T08:19:01.447Z,3.40
2023-10-18T08:19:52.440Z,3.30
2023-10-18T08:20:43.350Z,3.20
2023-10-18T08:21:34.313Z,3.10
2023-10-18T08:22:25.315Z,3.00
2023-10-18T08:23:16.248Z,3.20
2023-10-18T08:24:07.198Z,3.20
2023-10-18T08:24:58.226Z,3.20
2023-10-18T08:25:49.177Z,3.10
2023-10-18T08:26:40.107Z,3.50
2023-10-18T08:27:31.088Z,3.60
2023-10-18T08:28:22.078Z,3.30
2023-10-18T08:29:13.055Z,3.30
2023-10-18T08:30:04.030Z,3.30
2023-10-18T08:30:55.033Z,3.10
2023-10-18T08:31:46.058Z,3.20
2023-10-18T08:32:37.071Z,3.10
2023-10-18T08:33:28.039Z,3.20
2023-10-18T08:34:19.008Z,3.00
2023-10-18T08:35:09.968Z,3.00
2023-10-18T08:36:00.914Z,2.80
2023-10-18T08:36:51.888Z,3.10
2023-10-18T08:37:42.851Z,2.80
2023-10-18T08:38:33.800Z,2.80
2023-10-18T08:39:24.762Z,2.90
2023-10-18T08:40:15.783Z,2.80
2023-10-18T08:41:06.671Z,2.90
2023-10-18T08:41:58.120Z,2.80
2023-10-18T08:42:48.471Z,2.90
2023-10-18T08:43:39.462Z,2.80
2023-10-18T08:44:30.791Z,3.00
2023-10-18T08:45:21.405Z,3.00
2023-10-18T08:46:12.446Z,2.90
2023-10-18T08:47:03.450Z,3.20
2023-10-18T08:47:54.398Z,2.90
2023-10-18T08:48:45.338Z,2.80
2023-10-18T08:49:36.292Z,3.00
2023-10-18T08:50:27.384Z,2.90
2023-10-18T08:51:18.273Z,2.80
2023-10-18T08:52:09.236Z,2.90
2023-10-18T08:53:00.201Z,2.80
2023-10-18T08:53:51.169Z,3.00
2023-10-18T08:54:42.134Z,2.70
2023-10-18T08:55:33.173Z,2.80
2023-10-18T08:56:24.140Z,2.70
2023-10-18T08:57:15.095Z,2.60
2023-10-18T08:58:06.103Z,2.80
2023-10-18T08:58:57.008Z,2.70
2023-10-18T08:59:47.989Z,2.80
2023-10-18T09:00:38.925Z,2.80
2023-10-18T09:01:29.930Z,2.70
2023-10-18T09:02:20.918Z,2.80
2023-10-18T09:03:12.003Z,3.20
2023-10-18T09:04:03.085Z,2.90
2023-10-18T09:04:55.769Z,2.80
2023-10-18T09:05:45.046Z,2.80
2023-10-18T09:06:35.948Z,2.60
2023-10-18T09:07:26.980Z,2.50
2023-10-18T09:08:17.920Z,2.70
2023-10-18T09:09:08.891Z,2.40
2023-10-18T09:09:59.843Z,2.50
2023-10-18T09:10:50.826Z,2.90
2023-10-18T09:11:41.833Z,2.80
2023-10-18T09:12:32.804Z,2.50
2023-10-18T09:13:23.801Z,2.90
2023-10-18T09:14:14.779Z,2.50
2023-10-18T09:15:05.716Z,2.30
2023-10-18T09:16:00.364Z,2.40
2023-10-18T09:16:48.703Z,2.30
2023-10-18T09:17:38.591Z,2.50
2023-10-18T09:18:29.567Z,2.20
2023-10-18T09:19:20.556Z,2.30
2023-10-18T09:20:11.505Z,2.40
2023-10-18T09:21:02.475Z,2.20
2023-10-18T09:21:53.479Z,2.20
2023-10-18T09:22:44.388Z,4.30
2023-10-18T09:23:35.403Z,15.90
2023-10-18T09:24:26.332Z,2.90
2023-10-18T09:25:17.304Z,2.60
2023-10-18T09:26:08.251Z,2.30
2023-10-18T09:26:59.211Z,2.30
2023-10-18T09:27:50.183Z,2.20
2023-10-18T09:28:41.131Z,3.50
2023-10-18T09:29:32.071Z,2.90
2023-10-18T09:30:23.024Z,2.40
2023-10-18T09:31:14.129Z,2.30
2023-10-18T09:32:05.294Z,2.10
2023-10-18T09:32:56.243Z,2.40
2023-10-18T09:33:47.184Z,2.00
2023-10-18T09:34:38.155Z,2.10
2023-10-18T09:35:29.075Z,2.40
2023-10-18T09:36:20.022Z,1.90
2023-10-18T09:37:11.000Z,2.10
2023-10-18T09:38:01.956Z,2.10
2023-10-18T09:38:52.889Z,2.20
2023-10-18T09:39:43.875Z,2.00
2023-10-18T09:40:34.765Z,2.20
2023-10-18T09:41:25.704Z,2.20
2023-10-18T09:42:16.670Z,2.10
2023-10-18T09:43:07.637Z,2.00
2023-10-18T09:43:58.530Z,2.30
2023-10-18T09:44:49.468Z,1.90
2023-10-18T09:45:40.408Z,2.10
2023-10-18T09:46:31.471Z,2.00
2023-10-18T09:47:22.418Z,2.10
2023-10-18T09:48:13.379Z,2.50
2023-10-18T09:49:04.385Z,2.00
2023-10-18T09:49:55.277Z,2.00
2023-10-18T09:50:46.204Z,2.10
2023-10-18T09:51:37.171Z,1.90
2023-10-18T09:52:28.128Z,2.10
2023-10-18T09:53:19.001Z,1.90
2023-10-18T09:54:09.943Z,1.90
2023-10-18T09:55:01.007Z,1.80
2023-10-18T09:55:51.944Z,2.10
2023-10-18T09:56:42.863Z,2.00
2023-10-18T09:57:33.798Z,2.00
2023-10-18T09:58:24.827Z,2.00
2023-10-18T09:59:15.738Z,2.00
2023-10-18T10:00:06.680Z,2.10
2023-10-18T10:00:57.678Z,2.00
2023-10-18T10:01:48.708Z,2.30
2023-10-18T10:02:39.704Z,1.90
2023-10-18T10:03:30.708Z,2.10
2023-10-18T10:04:21.637Z,1.90
2023-10-18T10:05:12.533Z,2.00
2023-10-18T10:06:03.485Z,2.00
2023-10-18T10:06:54.685Z,2.20
2023-10-18T10:07:48.204Z,2.10
2023-10-18T10:08:35.918Z,2.10
2023-10-18T10:09:26.855Z,2.30
2023-10-18T10:10:17.859Z,2.10
2023-10-18T10:11:08.780Z,1.90
2023-10-18T10:11:59.730Z,1.70
2023-10-18T10:12:50.653Z,2.00
2023-10-18T10:13:41.589Z,2.00
2023-10-18T10:14:32.605Z,2.00
2023-10-18T10:15:23.517Z,1.80
2023-10-18T10:16:15.139Z,1.90
2023-10-18T10:17:05.505Z,2.10
2023-10-18T10:17:56.622Z,1.90
2023-10-18T10:18:47.641Z,1.90
2023-10-18T10:19:38.728Z,1.80
2023-10-18T10:20:29.709Z,2.00
2023-10-18T10:21:20.630Z,1.90
2023-10-18T10:22:11.875Z,1.80
2023-10-18T10:23:02.753Z,1.90
2023-10-18T10:23:53.698Z,1.90
2023-10-18T10:24:45.593Z,1.90
2023-10-18T10:26:03.399Z,2.00
2023-10-18T10:27:18.151Z,2.20
2023-10-18T10:28:07.904Z,2.10
2023-10-18T10:28:58.812Z,2.00
2023-10-18T10:29:49.744Z,1.80
2023-10-18T10:30:40.689Z,2.00
2023-10-18T10:31:31.824Z,2.20
2023-10-18T10:32:22.753Z,1.70
2023-10-18T10:33:13.753Z,2.10
2023-10-18T10:34:04.663Z,2.20
2023-10-18T10:34:55.602Z,1.90
2023-10-18T10:35:46.559Z,1.80
2023-10-18T10:36:37.471Z,2.10
2023-10-18T10:37:28.451Z,2.00
2023-10-18T10:37:36.398Z,1.80
2023-10-18T10:38:19.376Z,2.00
2023-10-18T10:39:10.300Z,1.90
2023-10-18T10:40:01.262Z,1.90
2023-10-18T10:40:52.173Z,1.80
2023-10-18T10:41:43.098Z,1.90
2023-10-18T10:42:34.050Z,2.00
2023-10-18T10:43:25.025Z,1.90
2023-10-18T10:44:15.947Z,2.00
2023-10-18T10:45:08.222Z,1.90
2023-10-18T10:45:57.844Z,2.10
2023-10-18T10:46:48.837Z,2.00
2023-10-18T10:47:39.764Z,2.00
2023-10-18T10:48:30.718Z,1.90
2023-10-18T10:49:21.658Z,1.90
2023-10-18T10:50:12.588Z,1.90
2023-10-18T10:51:03.498Z,1.90
2023-10-18T10:51:54.473Z,1.80
2023-10-18T10:52:45.416Z,1.80
2023-10-18T10:53:36.333Z,1.90
2023-10-18T10:54:27.286Z,1.70
2023-10-18T10:55:18.305Z,1.80
2023-10-18T10:56:09.183Z,1.60
2023-10-18T10:57:00.122Z,1.70
2023-10-18T10:57:51.066Z,2.00
2023-10-18T10:58:41.985Z,1.70
2023-10-18T10:59:32.921Z,1.60
2023-10-18T11:00:23.923Z,1.90
2023-10-18T11:01:14.877Z,1.80
2023-10-18T11:02:05.838Z,1.70
2023-10-18T11:02:57.575Z,1.70
2023-10-18T11:03:47.871Z,1.70
2023-10-18T11:04:38.819Z,1.80
2023-10-18T11:05:29.734Z,1.60
2023-10-18T11:06:20.657Z,1.70
2023-10-18T11:07:11.688Z,1.70
2023-10-18T11:08:02.697Z,1.60
2023-10-18T11:08:53.603Z,1.90
2023-10-18T11:09:44.511Z,1.90
2023-10-18T11:10:35.497Z,1.80
2023-10-18T11:11:26.414Z,1.80
2023-10-18T11:12:17.364Z,1.60
2023-10-18T11:13:08.331Z,1.90
2023-10-18T11:13:59.235Z,1.80
2023-10-18T11:14:50.185Z,2.00
2023-10-18T11:15:41.123Z,1.80
2023-10-18T11:16:32.172Z,1.80
2023-10-18T11:17:23.287Z,1.90